Shawnee, KS (66203)

1:53 AM CDT on March 27, 2017 (GMT -0500)
| | Change Station

Elev -9999 ft 0.00 °N, 0.00 °E | Updated 14 minutes ago

Rain
Rain
°F
Feels Like °F
N
Wind Variable Wind from North
Gusts mph

Today
High -- | Low -- °F
--% Chance of Precip.
Yesterday
High -- | Low -- °F
Precip. -- in
Pressure 29.91 in
Visibility 10.0 miles
Clouds Mostly Cloudy 5500 ft
Overcast 7000 ft
Dew Point Not available.
Humidity Not available.
Rainfall --
Snow Depth Not available.
7:10 AM 7:37 PM
Waning Crescent, 1% visible
METAR KMKC 270554Z 34006KT 10SM -RA BKN055 OVC070 09/08 A2990 RMK AO2 RAB28 SLP126 P0000 60000 T00940078 10117 20094 401220072 51005
Pressure 29.91 in
Visibility 10.0 miles
Clouds Mostly Cloudy 5500 ft
Overcast 7000 ft
Dew Point Not available.
Humidity Not available.
Rainfall --
Snow Depth Not available.
7:10 AM 7:37 PM
Waning Crescent, 1% visible
METAR KMKC 270554Z 34006KT 10SM -RA BKN055 OVC070 09/08 A2990 RMK AO2 RAB28 SLP126 P0000 60000 T00940078 10117 20094 401220072 51005

Get Severe Weather Alerts

Thanks for signing up!

Be on the lookout for a verification email in your inbox.

You'll start receiving the daily forecast at 8 AM.

×

10-Day Weather Forecast

Almanac

Astronomy

Mar. 27, 2017 Rise Set
Actual Time
Civil Twilight
Nautical Twilight
Astronomical Twilight
Moon
Length of Visible Light
Length of Day
Tomorrow will be .
, % of the Moon is Illuminated

Today's Extremes

State Highs State Lows

Community

WunderPhotos

Upload Photos

1,962,540 photos uploaded!

WunderBlog® & News

Nearby

Air Quality

  Air Quality AQ Index Pollutant
Not available.

Snow Depth

Station Depth Elevation

Earthquake Activity

City Distance Mag. Time & Date
Minimum magnitude displayed is 2.5.

Earthquake Activity

City Distance Mag. Time & Date
Minimum magnitude displayed is 2.5.

Coastal Water Temperatures

Place Temperature

Stations

Nearby Weather Stations

Station Location Temp. Windchill Dew Point Humidity Wind Precip. Elev Updated Type
                   

Watches & Warnings

There are currently no watches in effect.